La Habra, California
Current Conditions -  °F | °C
As of 11:53 AM on Saturday 25 Oct 2014 (Local Time) from KFUL Reporting Station
Few Clouds Few Clouds  
Wind Chill: 80°   Ceiling: Unl
Heat Index: 80°   Visibility: 10mi
Dew Point: 53°   Wind: 3mph
Humidity: 39%   Direction: NA
Pressure: 30.03"   Gusts: NA
Location:  33.93°N, 117.94°W
Report Text: KFUL 251853Z VRB03KT 10SM FEW095 27/12 A3003 RMK AO2 SLP168 T02670117 $
Loading
Personal Weather Stations






























Interactive Weather Map
Tropical Storm Tracking
New forecast layout! Learn more

10-Day Weather Forecast

Advertisements
Track Severe Weather on mobile